Time;durP1;ratioP1;P1;durP2;ratioP2;P2;SDS_P1;SDS_P2;PMS_P1;PMS_P2;Temp;Humidity;BMP_temperature;BMP_pressure;BME280_temperature;BME280_humidity;BME280_pressure;Samples;Min_cycle;Max_cycle;Signal;HPM_P1;HPM_P2
2022/12/31 00:01:16;;;;;;;3.60;2.10;;;18.40;54.10;;;;;;5008720;28;20201;-56
2022/12/31 00:03:45;;;;;;;4.07;2.38;;;18.30;54.00;;;;;;5008655;28;20300;-56
2022/12/31 00:06:16;;;;;;;4.65;2.30;;;18.30;53.90;;;;;;4993556;28;20304;-56
2022/12/31 00:08:43;;;;;;;4.50;2.30;;;18.30;53.90;;;;;;4992420;28;20205;-56
2022/12/31 00:11:10;;;;;;;3.22;2.10;;;18.30;53.70;;;;;;4993711;28;20215;-57
2022/12/31 00:13:38;;;;;;;5.68;2.28;;;18.30;53.70;;;;;;4993897;28;20623;-56
2022/12/31 00:16:07;;;;;;;4.28;2.03;;;18.30;53.80;;;;;;5008615;28;20299;-57
2022/12/31 00:18:34;;;;;;;3.65;2.08;;;18.30;53.80;;;;;;5008529;28;20586;-57
2022/12/31 00:21:06;;;;;;;4.13;2.17;;;18.30;53.80;;;;;;4993492;28;20285;-56
2022/12/31 00:23:34;;;;;;;3.85;1.83;;;18.30;53.80;;;;;;4976068;28;20190;-56
2022/12/31 00:26:05;;;;;;;4.38;2.05;;;18.30;53.80;;;;;;4992057;28;20655;-56
2022/12/31 00:28:33;;;;;;;2.83;2.10;;;18.20;53.70;;;;;;4976407;28;20197;-56
2022/12/31 00:31:05;;;;;;;4.72;2.50;;;18.20;53.70;;;;;;5008420;28;20200;-56
2022/12/31 00:33:33;;;;;;;5.47;1.90;;;18.20;53.50;;;;;;4993412;28;20182;-57
2022/12/31 00:36:09;;;;;;;3.42;2.10;;;18.20;53.60;;;;;;4991890;28;20300;-57
2022/12/31 00:38:37;;;;;;;5.53;2.20;;;18.20;53.60;;;;;;4991991;28;20207;-56
2022/12/31 00:41:04;;;;;;;4.78;1.90;;;18.20;53.50;;;;;;4993568;28;20279;-57
2022/12/31 00:43:31;;;;;;;3.45;1.80;;;18.20;53.60;;;;;;4993521;28;20273;-56
2022/12/31 00:45:58;;;;;;;5.03;1.90;;;18.20;53.50;;;;;;4992988;28;20217;-57
2022/12/31 00:48:25;;;;;;;2.83;1.58;;;18.20;53.70;;;;;;4993224;28;20174;-58
2022/12/31 00:50:52;;;;;;;3.10;1.80;;;18.20;53.70;;;;;;4993043;28;20187;-56
2022/12/31 00:53:21;;;;;;;2.10;1.50;;;18.20;53.60;;;;;;4991945;28;20573;-56
2022/12/31 00:55:48;;;;;;;3.53;1.80;;;18.20;53.60;;;;;;4991585;28;20213;-56
2022/12/31 00:58:15;;;;;;;3.15;1.70;;;18.10;53.70;;;;;;4996309;28;20204;-56
2022/12/31 01:00:42;;;;;;;4.90;2.08;;;18.20;53.70;;;;;;4996751;28;20197;-56
2022/12/31 01:03:09;;;;;;;2.28;1.80;;;18.10;53.50;;;;;;4996714;28;20193;-56
2022/12/31 01:05:36;;;;;;;4.15;2.20;;;18.10;53.60;;;;;;4996918;28;20639;-56
2022/12/31 01:08:03;;;;;;;2.95;1.67;;;18.10;53.60;;;;;;5011553;28;20209;-56
2022/12/31 01:13:16;;;;;;;2.95;2.03;;;18.10;53.60;;;;;;4996758;28;20657;-56
2022/12/31 01:15:43;;;;;;;3.38;1.90;;;18.10;53.50;;;;;;4996405;28;20293;-56
2022/12/31 01:18:10;;;;;;;3.15;1.83;;;18.10;53.60;;;;;;4996406;28;20589;-56
2022/12/31 01:20:37;;;;;;;4.22;1.90;;;18.10;53.60;;;;;;4995147;28;20227;-56
2022/12/31 01:23:05;;;;;;;3.05;1.70;;;18.10;53.50;;;;;;4996392;28;20197;-56
2022/12/31 01:25:36;;;;;;;3.53;1.80;;;18.10;53.50;;;;;;4995751;28;20193;-56
2022/12/31 01:28:03;;;;;;;4.00;1.90;;;18.10;53.50;;;;;;4995322;28;20660;-56
2022/12/31 01:30:30;;;;;;;2.78;1.80;;;18.10;53.50;;;;;;4995010;28;20292;-56
2022/12/31 01:32:57;;;;;;;2.70;1.65;;;18.00;53.50;;;;;;4996270;28;20198;-56
2022/12/31 01:35:24;;;;;;;2.88;1.80;;;18.00;53.50;;;;;;4996136;28;20220;-56
2022/12/31 01:37:51;;;;;;;3.30;1.55;;;18.00;53.40;;;;;;4996188;28;20213;-56
2022/12/31 01:40:19;;;;;;;3.17;2.03;;;18.00;53.40;;;;;;4996288;28;20189;-56
2022/12/31 01:42:53;;;;;;;1.67;1.38;;;18.00;53.40;;;;;;4994818;28;20670;-56
2022/12/31 01:45:21;;;;;;;3.13;2.00;;;18.00;53.40;;;;;;4996371;28;20296;-56
2022/12/31 01:47:49;;;;;;;4.68;1.80;;;18.00;53.30;;;;;;4995890;28;20220;-56
2022/12/31 01:50:17;;;;;;;2.58;1.80;;;18.00;53.30;;;;;;4996070;28;20281;-57
2022/12/31 01:52:46;;;;;;;3.65;1.92;;;18.00;53.20;;;;;;4996431;28;20240;-57
2022/12/31 01:55:16;;;;;;;3.60;1.60;;;18.00;53.20;;;;;;4994977;28;20702;-56
2022/12/31 01:57:43;;;;;;;3.22;1.70;;;18.00;53.20;;;;;;5011602;28;20722;-57
2022/12/31 02:00:13;;;;;;;3.40;1.90;;;18.00;53.20;;;;;;4995111;28;20208;-56
2022/12/31 02:02:40;;;;;;;3.25;1.67;;;18.00;53.20;;;;;;4996139;28;20194;-56
2022/12/31 02:05:11;;;;;;;2.83;1.90;;;18.00;53.20;;;;;;4996293;28;20197;-56
2022/12/31 02:07:39;;;;;;;2.50;1.60;;;17.90;53.20;;;;;;4996296;28;20212;-56
2022/12/31 02:10:06;;;;;;;3.25;1.95;;;17.90;53.10;;;;;;5010606;28;20284;-56
2022/12/31 02:12:34;;;;;;;4.07;1.80;;;17.90;53.10;;;;;;4996747;28;20189;-56
2022/12/31 02:15:01;;;;;;;2.60;1.58;;;17.90;53.10;;;;;;4995765;28;20209;-55
2022/12/31 02:17:32;;;;;;;2.85;1.58;;;17.80;53.10;;;;;;4994988;28;20635;-56
2022/12/31 02:20:26;;;;;;;2.70;1.60;;;17.90;53.20;;;;;;4995860;28;20185;-56
2022/12/31 02:23:14;;;;;;;1.77;1.48;;;17.80;53.10;;;;;;4994282;28;20774;-56
2022/12/31 02:26:05;;;;;;;1.90;1.50;;;17.80;53.20;;;;;;5028397;23;20326;-54
2022/12/31 02:28:42;;;;;;;2.38;1.60;;;17.80;53.10;;;;;;5036710;28;20205;-54
2022/12/31 02:31:12;;;;;;;2.78;1.40;;;17.80;53.20;;;;;;5038362;28;20261;-54
2022/12/31 02:33:40;;;;;;;2.58;1.70;;;17.80;53.20;;;;;;5056150;28;20691;-54
2022/12/31 02:36:10;;;;;;;1.98;1.50;;;17.80;53.30;;;;;;5037580;28;20249;-54
2022/12/31 02:38:39;;;;;;;2.08;1.55;;;17.70;53.20;;;;;;5037964;28;20199;-54
2022/12/31 02:41:48;;;;;;;3.17;1.65;;;17.80;53.40;;;;;;5037860;28;20256;-54
2022/12/31 02:43:59;;;;;;;2.35;1.45;;;17.70;53.30;;;;;;5037300;28;20679;-54
2022/12/31 02:46:30;;;;;;;2.55;1.70;;;17.70;53.40;;;;;;5055743;28;20571;-54
2022/12/31 02:48:59;;;;;;;2.08;1.40;;;17.70;53.40;;;;;;5037321;28;20206;-54
2022/12/31 02:51:32;;;;;;;4.32;1.80;;;17.70;53.50;;;;;;5036724;28;20196;-55
2022/12/31 02:54:17;;;;;;;2.30;1.40;;;17.70;53.40;;;;;;5037185;28;20192;-54
2022/12/31 02:56:48;;;;;;;1.63;1.50;;;17.70;53.50;;;;;;5055216;28;20239;-54
2022/12/31 03:02:15;;;;;;;2.80;1.60;;;17.60;53.60;;;;;;5037055;28;20200;-54
2022/12/31 03:04:42;;;;;;;1.48;1.38;;;17.60;53.50;;;;;;5055164;28;20243;-54
2022/12/31 03:07:11;;;;;;;3.00;1.73;;;17.60;53.50;;;;;;5055004;28;20233;-55
2022/12/31 03:09:38;;;;;;;2.58;1.60;;;17.60;53.50;;;;;;5055135;28;20195;-54
2022/12/31 03:14:58;;;;;;;2.00;1.40;;;17.60;53.60;;;;;;5018745;28;20203;-54
2022/12/31 03:17:26;;;;;;;3.15;1.50;;;17.60;53.60;;;;;;5036725;28;20219;-54
2022/12/31 03:22:40;;;;;;;2.08;1.45;;;17.60;53.60;;;;;;5036776;28;20199;-54
2022/12/31 03:27:59;;;;;;;2.50;1.48;;;17.60;53.60;;;;;;5054496;28;20187;-55
2022/12/31 03:30:26;;;;;;;2.25;1.20;;;17.50;53.50;;;;;;5054542;28;20183;-54
2022/12/31 03:32:56;;;;;;;2.45;1.70;;;17.50;53.50;;;;;;5036593;28;20315;-54
2022/12/31 03:35:22;;;;;;;1.88;1.55;;;17.50;53.50;;;;;;5036581;28;20607;-54
2022/12/31 03:37:50;;;;;;;1.92;1.17;;;17.50;53.50;;;;;;5036598;28;20211;-54
2022/12/31 03:40:17;;;;;;;1.90;1.40;;;17.50;53.50;;;;;;5036598;28;20629;-54
2022/12/31 03:42:44;;;;;;;2.20;1.20;;;17.50;53.50;;;;;;5036442;28;20199;-54
2022/12/31 03:45:11;;;;;;;3.63;1.70;;;17.50;53.60;;;;;;5036723;28;20590;-54
2022/12/31 03:47:38;;;;;;;1.63;1.40;;;17.50;53.60;;;;;;5036546;28;20238;-54
2022/12/31 03:50:08;;;;;;;2.55;1.60;;;17.50;53.70;;;;;;5054451;28;20203;-54
2022/12/31 03:52:35;;;;;;;2.53;1.60;;;17.50;53.70;;;;;;5036078;28;20202;-54
2022/12/31 03:55:02;;;;;;;1.95;1.23;;;17.50;53.70;;;;;;5036561;28;20290;-54
2022/12/31 03:57:29;;;;;;;1.38;1.27;;;17.50;53.70;;;;;;5054266;28;20208;-54
2022/12/31 03:59:56;;;;;;;2.90;1.67;;;17.50;53.70;;;;;;5054308;28;20534;-54
2022/12/31 04:02:24;;;;;;;1.85;1.30;;;17.50;53.80;;;;;;5054371;28;20187;-54
2022/12/31 04:04:52;;;;;;;2.67;1.23;;;17.40;53.70;;;;;;5036487;28;20732;-54
2022/12/31 04:07:20;;;;;;;1.98;1.55;;;17.40;53.80;;;;;;5054310;28;20214;-54
2022/12/31 04:09:48;;;;;;;2.55;1.55;;;17.50;53.80;;;;;;5054310;28;20242;-54
2022/12/31 04:12:15;;;;;;;3.00;1.52;;;17.40;53.80;;;;;;5054212;28;20198;-54
2022/12/31 04:14:42;;;;;;;1.38;1.08;;;17.50;53.90;;;;;;5036493;28;20257;-54
2022/12/31 04:17:09;;;;;;;2.00;1.10;;;17.40;54.00;;;;;;5054160;28;20223;-54
2022/12/31 04:19:36;;;;;;;1.48;1.10;;;17.50;54.10;;;;;;5036886;28;20309;-54
2022/12/31 04:22:04;;;;;;;1.95;1.20;;;17.50;54.10;;;;;;5036260;28;20269;-54
2022/12/31 04:24:34;;;;;;;1.75;1.17;;;17.50;54.00;;;;;;5054334;28;20206;-54
2022/12/31 04:27:01;;;;;;;3.03;1.50;;;17.50;54.00;;;;;;5054114;28;20217;-54
2022/12/31 04:29:28;;;;;;;2.75;1.33;;;17.50;53.90;;;;;;5035973;28;20254;-54
2022/12/31 04:31:55;;;;;;;2.05;1.50;;;17.50;53.90;;;;;;5037169;28;20301;-54
2022/12/31 04:34:22;;;;;;;2.00;1.38;;;17.50;53.80;;;;;;5040462;28;20210;-54
2022/12/31 04:36:49;;;;;;;2.53;1.48;;;17.60;53.70;;;;;;5039788;28;20227;-54
2022/12/31 04:39:16;;;;;;;1.92;1.38;;;17.60;53.60;;;;;;5040054;28;20187;-54
2022/12/31 04:41:45;;;;;;;1.88;1.20;;;17.60;53.50;;;;;;5040061;28;20195;-55
2022/12/31 04:44:13;;;;;;;2.03;1.23;;;17.60;53.40;;;;;;5039790;28;20198;-55
2022/12/31 04:46:40;;;;;;;1.30;1.20;;;17.70;53.40;;;;;;5040581;28;20215;-54
2022/12/31 04:49:08;;;;;;;1.58;1.10;;;17.70;53.30;;;;;;5039901;28;20548;-54
2022/12/31 04:51:34;;;;;;;3.28;1.35;;;17.70;53.30;;;;;;5058279;28;20187;-54
2022/12/31 04:54:04;;;;;;;2.63;1.38;;;17.70;53.20;;;;;;5058105;28;20266;-55
2022/12/31 04:56:32;;;;;;;2.20;1.30;;;17.80;53.10;;;;;;5040553;28;20227;-54
2022/12/31 04:59:00;;;;;;;2.30;1.30;;;17.80;53.00;;;;;;5057866;28;20191;-54
2022/12/31 05:01:27;;;;;;;1.52;1.33;;;17.80;52.90;;;;;;5057011;28;20188;-54
2022/12/31 05:03:54;;;;;;;1.70;1.20;;;17.90;53.00;;;;;;5057095;28;20195;-54
2022/12/31 05:06:22;;;;;;;1.77;1.13;;;17.90;53.00;;;;;;5039479;28;20215;-54
2022/12/31 05:08:50;;;;;;;1.20;1.10;;;17.90;52.90;;;;;;5039384;28;20268;-54
2022/12/31 05:11:16;;;;;;;1.80;1.15;;;17.90;52.90;;;;;;5057376;28;20211;-54
2022/12/31 05:13:44;;;;;;;1.38;1.13;;;17.90;52.90;;;;;;5039137;28;20196;-54
2022/12/31 05:16:12;;;;;;;1.30;1.17;;;17.90;52.90;;;;;;5039062;28;20231;-55
2022/12/31 05:18:39;;;;;;;1.35;1.20;;;17.90;52.90;;;;;;5056951;28;20192;-54
2022/12/31 05:21:07;;;;;;;2.13;1.23;;;17.90;52.90;;;;;;5038897;28;20200;-55
2022/12/31 05:23:34;;;;;;;2.25;1.40;;;17.90;52.90;;;;;;5039122;28;20200;-55
2022/12/31 05:26:01;;;;;;;1.67;1.10;;;17.90;52.90;;;;;;5056640;28;20219;-54
2022/12/31 05:28:28;;;;;;;1.55;1.10;;;17.90;52.90;;;;;;5038774;28;20633;-54
2022/12/31 05:30:55;;;;;;;1.27;1.17;;;17.90;52.90;;;;;;5039002;28;20200;-56
2022/12/31 05:33:23;;;;;;;1.30;1.20;;;17.90;52.90;;;;;;5039389;28;20198;-56
2022/12/31 05:35:51;;;;;;;1.35;1.20;;;17.90;52.90;;;;;;5038587;28;20269;-56
2022/12/31 05:38:17;;;;;;;3.80;1.30;;;17.90;52.80;;;;;;5038520;28;20257;-56
2022/12/31 05:40:45;;;;;;;1.23;1.10;;;17.90;52.80;;;;;;5056508;28;20194;-56
2022/12/31 05:43:14;;;;;;;1.30;1.08;;;18.00;52.90;;;;;;5037467;28;20199;-56
2022/12/31 05:45:41;;;;;;;1.60;1.20;;;17.90;52.70;;;;;;5038481;28;20203;-56
2022/12/31 05:48:08;;;;;;;1.60;1.10;;;18.00;52.80;;;;;;5038746;28;20219;-56
2022/12/31 05:50:36;;;;;;;1.13;1.00;;;17.90;52.80;;;;;;5037621;28;20211;-56
2022/12/31 05:53:04;;;;;;;1.30;1.20;;;18.00;52.50;;;;;;5037690;28;20196;-56
2022/12/31 05:55:31;;;;;;;1.42;1.30;;;18.00;52.50;;;;;;5037472;28;20207;-57
2022/12/31 05:57:58;;;;;;;1.55;1.20;;;18.00;52.60;;;;;;5037670;28;20294;-57
2022/12/31 06:00:25;;;;;;;1.65;1.27;;;18.00;52.50;;;;;;5055221;28;20198;-57
2022/12/31 06:02:52;;;;;;;1.13;1.02;;;18.00;52.50;;;;;;5037572;28;20200;-57
2022/12/31 06:05:18;;;;;;;2.03;1.27;;;18.00;52.40;;;;;;5055663;28;20545;-57
2022/12/31 06:07:47;;;;;;;1.30;1.20;;;18.00;52.10;;;;;;5037496;28;20211;-57
2022/12/31 06:10:14;;;;;;;1.23;1.13;;;18.00;52.30;;;;;;5055111;28;20191;-57
2022/12/31 06:12:41;;;;;;;1.20;1.10;;;18.10;52.40;;;;;;5055043;28;20191;-57
2022/12/31 06:15:09;;;;;;;1.85;1.20;;;18.10;52.40;;;;;;5054902;28;20690;-57
2022/12/31 06:17:36;;;;;;;1.30;1.20;;;18.10;52.20;;;;;;5054808;28;20687;-57
2022/12/31 06:20:04;;;;;;;1.55;1.10;;;18.10;52.00;;;;;;5054804;28;20251;-57
2022/12/31 06:22:31;;;;;;;1.33;1.13;;;18.20;52.10;;;;;;5054757;28;20223;-57
2022/12/31 06:25:02;;;;;;;1.63;1.40;;;18.20;52.00;;;;;;5054523;28;20557;-55
2022/12/31 06:27:28;;;;;;;1.27;1.17;;;18.20;52.00;;;;;;5036707;28;20214;-54
2022/12/31 06:29:56;;;;;;;1.52;1.13;;;18.20;51.80;;;;;;5054595;28;20214;-57
2022/12/31 06:32:23;;;;;;;1.30;1.20;;;18.20;51.80;;;;;;5036715;28;20199;-57
2022/12/31 06:34:50;;;;;;;1.23;1.10;;;18.30;51.80;;;;;;5036646;28;20200;-57
2022/12/31 06:37:17;;;;;;;1.45;1.15;;;18.30;51.90;;;;;;5036605;28;20219;-57
2022/12/31 06:39:44;;;;;;;1.23;1.13;;;18.30;51.80;;;;;;5037578;28;20200;-57
2022/12/31 06:42:13;;;;;;;1.10;1.00;;;18.30;51.60;;;;;;5036542;28;20282;-56
2022/12/31 06:44:40;;;;;;;1.63;1.10;;;18.30;51.60;;;;;;5054705;28;20211;-56
2022/12/31 06:47:07;;;;;;;2.42;1.23;;;18.30;51.60;;;;;;5054220;28;20209;-57
2022/12/31 06:49:34;;;;;;;1.30;1.10;;;18.30;51.70;;;;;;5036400;28;20207;-57
2022/12/31 06:52:01;;;;;;;1.23;1.13;;;18.40;51.70;;;;;;5036502;28;20207;-57
2022/12/31 06:54:28;;;;;;;1.10;1.00;;;18.40;51.70;;;;;;5036197;28;20206;-57
2022/12/31 06:56:56;;;;;;;0.80;0.80;;;18.40;51.90;;;;;;5036476;28;20265;-57
2022/12/31 06:59:26;;;;;;;1.42;1.00;;;18.40;51.70;;;;;;5037318;28;20199;-57
2022/12/31 07:02:12;;;;;;;1.08;1.00;;;18.40;51.70;;;;;;5055234;28;20184;-54
2022/12/31 07:04:53;;;;;;;1.05;0.95;;;18.50;52.00;;;;;;5038513;28;20192;-54
2022/12/31 07:07:24;;;;;;;1.95;1.00;;;18.50;51.70;;;;;;5037097;28;20564;-54
2022/12/31 07:09:55;;;;;;;1.13;1.10;;;18.40;51.60;;;;;;5036465;28;20578;-54
2022/12/31 07:12:33;;;;;;;1.17;1.10;;;18.40;51.80;;;;;;5036386;28;20222;-54
2022/12/31 07:15:04;;;;;;;0.90;0.90;;;18.40;51.80;;;;;;5036212;28;20189;-54
2022/12/31 07:17:34;;;;;;;1.02;1.02;;;18.40;51.90;;;;;;5036133;28;20220;-54
2022/12/31 07:20:02;;;;;;;0.90;0.90;;;18.40;51.70;;;;;;5053963;28;20188;-54
2022/12/31 07:22:29;;;;;;;1.20;1.10;;;18.50;51.60;;;;;;5053895;28;20554;-54
2022/12/31 07:24:57;;;;;;;1.10;1.00;;;18.50;51.50;;;;;;5053920;28;20195;-55
2022/12/31 07:27:42;;;;;;;1.20;1.10;;;18.50;51.50;;;;;;5053903;28;20575;-54
2022/12/31 07:30:13;;;;;;;1.70;0.95;;;18.60;51.40;;;;;;5053605;28;20207;-54
2022/12/31 07:33:11;;;;;;;1.40;1.00;;;18.60;51.40;;;;;;5053589;28;20183;-55
2022/12/31 07:35:43;;;;;;;0.88;0.88;;;18.60;51.50;;;;;;5053452;28;20658;-55
2022/12/31 07:38:15;;;;;;;1.10;0.98;;;18.50;51.60;;;;;;5053501;28;20204;-55
2022/12/31 07:40:50;;;;;;;0.90;0.90;;;18.60;52.00;;;;;;5053615;28;20202;-55
2022/12/31 07:43:26;;;;;;;0.85;0.85;;;18.60;51.50;;;;;;5036199;28;20206;-55
2022/12/31 07:45:58;;;;;;;1.42;1.20;;;18.60;52.00;;;;;;5035688;28;20226;-55
2022/12/31 07:48:26;;;;;;;1.30;1.00;;;18.60;51.30;;;;;;5053354;28;20175;-55
2022/12/31 07:50:55;;;;;;;1.08;1.00;;;18.60;51.20;;;;;;5035374;28;20205;-55
2022/12/31 07:53:23;;;;;;;1.30;1.20;;;18.60;51.20;;;;;;5035294;28;20195;-55
2022/12/31 07:55:52;;;;;;;2.03;1.23;;;18.60;51.20;;;;;;5035282;28;20219;-55
2022/12/31 07:58:20;;;;;;;1.25;0.90;;;18.70;51.20;;;;;;5035216;28;20263;-55
2022/12/31 08:00:47;;;;;;;1.13;1.05;;;18.70;51.30;;;;;;5035172;28;20206;-55
2022/12/31 08:03:21;;;;;;;1.00;1.00;;;18.70;51.10;;;;;;5035113;28;20203;-55
2022/12/31 08:05:52;;;;;;;1.25;1.00;;;18.70;51.10;;;;;;5034843;28;20336;-55
2022/12/31 08:08:24;;;;;;;0.95;0.90;;;18.80;51.10;;;;;;5052743;28;20184;-55
2022/12/31 08:11:16;;;;;;;1.02;1.00;;;18.80;51.10;;;;;;5053332;28;20210;-55
2022/12/31 08:13:44;;;;;;;0.80;0.80;;;18.70;51.10;;;;;;5052861;28;20552;-55
2022/12/31 08:16:12;;;;;;;1.40;0.90;;;18.70;50.90;;;;;;5034900;28;20234;-55
2022/12/31 08:18:41;;;;;;;0.90;0.90;;;18.80;51.20;;;;;;5035034;28;20199;-55
2022/12/31 08:21:14;;;;;;;1.15;0.90;;;18.80;50.90;;;;;;5053107;28;20202;-55
2022/12/31 08:23:44;;;;;;;0.90;0.90;;;18.80;51.00;;;;;;5052842;28;20198;-55
2022/12/31 08:26:18;;;;;;;1.08;1.02;;;18.80;50.90;;;;;;5034777;28;20226;-55
2022/12/31 08:29:04;;;;;;;2.05;1.08;;;18.80;51.00;;;;;;5034889;28;20218;-55
2022/12/31 08:31:36;;;;;;;1.10;1.00;;;18.80;51.10;;;;;;5032283;28;20191;-55
2022/12/31 08:34:08;;;;;;;0.95;0.90;;;18.80;51.10;;;;;;5052878;28;20175;-55
2022/12/31 08:36:42;;;;;;;1.65;1.02;;;18.80;51.00;;;;;;5052621;28;20211;-56
2022/12/31 08:39:14;;;;;;;1.20;1.10;;;18.80;51.20;;;;;;5052872;28;20262;-55
2022/12/31 08:41:44;;;;;;;1.20;1.10;;;18.90;51.10;;;;;;5034661;28;20563;-55
2022/12/31 08:44:14;;;;;;;1.50;1.15;;;18.90;51.30;;;;;;5034584;28;20207;-55
2022/12/31 08:46:45;;;;;;;1.48;1.17;;;18.90;51.30;;;;;;5052372;28;20591;-56
2022/12/31 08:49:14;;;;;;;0.82;0.82;;;18.80;51.40;;;;;;5034555;28;20187;-55
2022/12/31 08:51:42;;;;;;;1.20;1.00;;;18.80;51.30;;;;;;5052766;28;20194;-55
2022/12/31 08:54:11;;;;;;;1.13;1.02;;;18.90;51.40;;;;;;5052367;28;20283;-55
2022/12/31 08:56:42;;;;;;;1.02;1.00;;;18.90;51.20;;;;;;5035003;28;20591;-55
2022/12/31 08:59:19;;;;;;;1.70;1.27;;;18.90;51.20;;;;;;5034563;28;20278;-55
2022/12/31 09:01:57;;;;;;;2.03;1.15;;;18.90;51.10;;;;;;5034581;28;20195;-55
2022/12/31 09:04:29;;;;;;;1.15;1.05;;;18.90;51.30;;;;;;5035435;28;20195;-55
2022/12/31 09:06:58;;;;;;;1.23;1.08;;;18.90;51.00;;;;;;5034365;28;20286;-55
2022/12/31 09:09:31;;;;;;;1.65;1.00;;;19.00;51.10;;;;;;5052355;28;20218;-55
2022/12/31 09:12:04;;;;;;;1.13;1.02;;;19.00;50.80;;;;;;5052433;28;20186;-55
2022/12/31 09:14:42;;;;;;;1.30;1.00;;;19.10;50.60;;;;;;5052338;28;20289;-55
2022/12/31 09:17:15;;;;;;;1.25;1.15;;;19.20;50.50;;;;;;5034546;28;20223;-56
2022/12/31 09:19:43;;;;;;;3.90;1.08;;;19.20;50.40;;;;;;5037844;28;20210;-56
2022/12/31 09:22:10;;;;;;;1.40;1.10;;;19.20;50.00;;;;;;5038074;28;20210;-56
2022/12/31 09:24:38;;;;;;;1.00;1.00;;;19.40;50.00;;;;;;5055780;28;20233;-56
2022/12/31 09:27:09;;;;;;;1.30;1.10;;;19.40;49.80;;;;;;5055420;28;20699;-55
2022/12/31 09:29:43;;;;;;;1.30;0.90;;;19.40;49.80;;;;;;5055817;28;20575;-56
2022/12/31 09:32:16;;;;;;;2.22;1.27;;;19.50;49.80;;;;;;5055794;28;20195;-55
2022/12/31 09:34:49;;;;;;;2.00;1.30;;;19.50;50.10;;;;;;5055792;28;20750;-55
2022/12/31 09:37:17;;;;;;;1.98;1.20;;;19.50;50.20;;;;;;5055414;28;20211;-52
2022/12/31 09:39:45;;;;;;;4.18;1.40;;;19.50;50.30;;;;;;5037427;28;20207;-53
2022/12/31 09:42:46;;;;;;;2.42;1.33;;;19.60;50.70;;;;;;5037422;28;20676;-53
2022/12/31 09:45:52;;;;;;;2.38;1.17;;;19.60;50.50;;;;;;5045731;23;20238;-56
2022/12/31 09:48:43;;;;;;;4.75;1.33;;;19.60;50.70;;;;;;5017474;28;20279;-57
2022/12/31 09:51:22;;;;;;;5.22;1.45;;;19.60;50.70;;;;;;5035231;28;20177;-56
2022/12/31 09:54:13;;;;;;;1.30;1.20;;;19.70;50.90;;;;;;5017611;28;20185;-56
2022/12/31 09:56:42;;;;;;;1.73;1.40;;;19.70;50.90;;;;;;5015044;28;20250;-57
2022/12/31 09:59:12;;;;;;;1104.45;659.05;;;19.80;51.10;;;;;;5035630;28;20525;-58
2022/12/31 10:01:45;;;;;;;417.40;315.58;;;19.70;53.40;;;;;;5017401;28;20620;-59
2022/12/31 10:04:49;;;;;;;442.40;354.42;;;19.80;53.40;;;;;;5034607;28;20978;-58
2022/12/31 10:07:30;;;;;;;250.02;187.98;;;19.90;55.30;;;;;;4982639;28;20222;-58
2022/12/31 10:10:06;;;;;;;248.40;183.27;;;19.90;53.40;;;;;;5017008;28;20228;-58
2022/12/31 10:12:46;;;;;;;243.52;180.57;;;19.80;53.20;;;;;;5035054;28;20555;-56
2022/12/31 10:15:32;;;;;;;237.68;171.55;;;19.90;53.00;;;;;;5034963;28;20238;-55
2022/12/31 10:18:03;;;;;;;209.00;153.85;;;19.90;52.90;;;;;;5016629;28;20306;-56
2022/12/31 10:20:37;;;;;;;222.18;160.10;;;20.00;53.00;;;;;;5034935;28;20702;-57
2022/12/31 10:23:17;;;;;;;204.45;153.05;;;20.00;52.90;;;;;;5016792;28;20622;-57
2022/12/31 10:26:05;;;;;;;184.55;132.68;;;20.00;52.90;;;;;;5034459;28;20648;-56
2022/12/31 10:28:40;;;;;;;169.90;122.85;;;20.00;52.50;;;;;;5034515;28;20196;-56
2022/12/31 10:31:13;;;;;;;192.48;144.80;;;20.00;52.50;;;;;;5033685;28;20259;-57
2022/12/31 10:33:43;;;;;;;177.35;134.48;;;20.10;53.80;;;;;;5016490;28;20189;-57
2022/12/31 10:36:17;;;;;;;165.57;125.78;;;20.10;53.20;;;;;;5034283;28;20208;-56
2022/12/31 10:38:54;;;;;;;166.73;126.55;;;20.20;53.30;;;;;;5034081;28;20200;-56
2022/12/31 10:41:53;;;;;;;173.35;131.77;;;20.20;53.20;;;;;;5016581;28;20250;-56
2022/12/31 10:44:52;;;;;;;148.38;111.93;;;20.20;53.20;;;;;;5016340;28;20736;-56
2022/12/31 10:47:54;;;;;;;155.95;116.43;;;20.20;53.00;;;;;;5033975;28;20298;-56
2022/12/31 10:50:36;;;;;;;131.88;98.55;;;20.10;52.50;;;;;;5013129;28;20208;-55
2022/12/31 10:53:34;;;;;;;137.30;105.63;;;20.10;52.50;;;;;;5034155;28;20173;-56
2022/12/31 10:56:25;;;;;;;130.70;96.30;;;20.10;52.90;;;;;;4984055;28;20197;-56
2022/12/31 10:59:27;;;;;;;126.65;94.65;;;20.10;52.70;;;;;;5016084;28;20222;-57
2022/12/31 11:01:59;;;;;;;123.80;88.65;;;20.10;53.00;;;;;;5015916;28;20645;-56
2022/12/31 11:05:07;;;;;;;122.47;91.22;;;20.10;53.40;;;;;;5015874;28;20216;-56
2022/12/31 11:08:09;;;;;;;108.38;79.43;;;20.10;53.60;;;;;;5033580;28;20709;-56
2022/12/31 11:11:00;;;;;;;108.72;82.18;;;20.10;53.40;;;;;;4973199;28;20241;-56
2022/12/31 11:13:53;;;;;;;109.15;80.63;;;20.10;53.30;;;;;;5014416;28;20204;-56
2022/12/31 11:16:39;;;;;;;108.40;77.43;;;20.10;53.10;;;;;;5033385;28;20222;-56
2022/12/31 11:19:10;;;;;;;94.60;72.78;;;20.20;52.90;;;;;;5022774;28;20250;-56
2022/12/31 11:21:46;;;;;;;95.45;67.68;;;20.20;52.50;;;;;;5033454;28;20271;-56
2022/12/31 11:24:18;;;;;;;74.60;55.20;;;20.20;52.40;;;;;;5015656;28;20641;-56
2022/12/31 11:26:53;;;;;;;82.50;60.15;;;20.20;52.20;;;;;;5015517;28;20306;-55
2022/12/31 11:29:30;;;;;;;80.97;61.67;;;20.20;52.80;;;;;;5033759;28;20226;-54
2022/12/31 11:32:14;;;;;;;60.33;47.55;;;20.20;52.20;;;;;;5033385;28;20628;-54
2022/12/31 11:35:08;;;;;;;25.75;21.52;;;20.20;51.70;;;;;;5032681;28;20483;-55
2022/12/31 11:37:40;;;;;;;31.70;26.60;;;20.20;50.90;;;;;;5046056;22;20455;-54
2022/12/31 11:40:36;;;;;;;27.60;21.42;;;20.20;51.40;;;;;;5053255;28;20183;-54
2022/12/31 11:43:10;;;;;;;26.25;20.92;;;20.20;51.60;;;;;;5052864;28;20266;-53
2022/12/31 11:45:49;;;;;;;17.95;14.55;;;20.20;51.90;;;;;;5035192;28;20187;-53
2022/12/31 11:48:22;;;;;;;21.05;15.02;;;20.20;51.40;;;;;;5036874;28;20218;-54
2022/12/31 11:50:54;;;;;;;21.27;16.08;;;20.30;51.60;;;;;;5054604;28;20575;-53
2022/12/31 11:53:43;;;;;;;12.95;10.93;;;20.20;51.30;;;;;;5053215;28;20172;-53
2022/12/31 11:56:15;;;;;;;14.38;11.30;;;20.30;51.20;;;;;;5042802;28;20227;-53
2022/12/31 11:58:46;;;;;;;14.60;11.57;;;20.30;51.10;;;;;;5035295;28;20238;-56
2022/12/31 12:01:18;;;;;;;18.38;12.73;;;20.30;51.00;;;;;;5053615;28;20175;-55
2022/12/31 12:03:45;;;;;;;15.13;11.68;;;20.40;51.00;;;;;;5035290;28;20286;-54
2022/12/31 12:06:12;;;;;;;16.52;13.52;;;20.40;51.10;;;;;;5053104;28;20215;-54
2022/12/31 12:08:39;;;;;;;19.25;13.68;;;20.40;51.10;;;;;;5037064;28;20569;-54
2022/12/31 12:11:08;;;;;;;17.60;12.75;;;20.40;51.00;;;;;;5036708;28;20268;-54
2022/12/31 12:13:35;;;;;;;19.10;13.70;;;20.40;51.00;;;;;;5035837;28;20191;-56
2022/12/31 12:16:02;;;;;;;19.08;13.60;;;20.50;51.00;;;;;;5052646;28;20207;-54
2022/12/31 12:18:34;;;;;;;16.15;11.80;;;20.50;51.10;;;;;;5052747;28;20211;-53
2022/12/31 12:21:06;;;;;;;16.83;12.45;;;20.50;51.00;;;;;;5035417;28;20188;-53
2022/12/31 12:23:34;;;;;;;17.55;12.73;;;20.50;50.90;;;;;;5034753;28;20188;-53
2022/12/31 12:26:01;;;;;;;17.45;13.15;;;20.60;50.80;;;;;;5053242;28;20203;-55
2022/12/31 12:28:29;;;;;;;14.82;12.00;;;20.60;50.70;;;;;;5035327;28;20199;-54
2022/12/31 12:31:02;;;;;;;15.15;12.07;;;20.60;50.70;;;;;;5031791;28;20218;-54
2022/12/31 12:33:40;;;;;;;15.65;11.68;;;20.60;50.70;;;;;;5030975;28;20260;-57
2022/12/31 12:36:09;;;;;;;15.10;10.98;;;20.60;50.70;;;;;;5045433;28;20259;-56
2022/12/31 12:38:36;;;;;;;17.02;11.48;;;20.50;50.60;;;;;;5045085;28;20767;-56
2022/12/31 12:41:05;;;;;;;15.43;11.63;;;20.60;50.70;;;;;;5028210;28;20302;-55
2022/12/31 12:43:33;;;;;;;15.98;11.30;;;20.50;50.60;;;;;;5047069;28;20200;-57
2022/12/31 12:46:01;;;;;;;11.55;9.00;;;20.60;50.70;;;;;;5047590;28;20218;-57
2022/12/31 12:48:40;;;;;;;13.30;10.45;;;20.50;50.60;;;;;;5062413;22;20223;-81
2022/12/31 12:51:24;;;;;;;14.57;10.55;;;20.50;50.70;;;;;;5032982;28;20278;-81
2022/12/31 12:53:55;;;;;;;12.88;9.98;;;20.50;50.80;;;;;;5035470;28;20196;-80
2022/12/31 12:56:30;;;;;;;15.05;10.50;;;20.50;50.70;;;;;;5036164;28;20253;-80
2022/12/31 12:59:06;;;;;;;12.80;9.65;;;20.50;50.80;;;;;;5036364;28;20282;-80
2022/12/31 13:01:35;;;;;;;13.35;9.07;;;20.50;50.80;;;;;;5036220;28;20203;-81
2022/12/31 13:04:18;;;;;;;12.70;9.23;;;20.40;50.90;;;;;;5040110;28;20658;-81
2022/12/31 13:06:56;;;;;;;12.85;8.80;;;20.40;51.00;;;;;;5039969;28;20302;-80
2022/12/31 13:09:30;;;;;;;11.52;8.70;;;20.40;51.00;;;;;;5040099;28;20634;-80
2022/12/31 13:12:02;;;;;;;10.88;8.32;;;20.40;51.10;;;;;;5040763;28;20657;-81
2022/12/31 13:14:31;;;;;;;12.52;8.48;;;20.40;51.10;;;;;;5040772;28;20275;-81
2022/12/31 13:17:02;;;;;;;11.80;7.78;;;20.50;51.20;;;;;;5040200;28;20263;-80
2022/12/31 13:19:34;;;;;;;10.20;7.90;;;20.50;51.20;;;;;;5040552;28;20302;-81